Overseas Skopelos — V7SU9 — position and weather

sailwx.info

Track history (hours):
 
Tides and Currents Weather Stations Pressure Air Temp Water Temp Dewpoint Dewpoint Depression Visibility Wind Speed Wind Dir Waves Ship Positions

Overseas Skopelos

Last reported at 2014-Nov-22 09:31 UTC. Time now 2014-Nov-22 10:35 UTC.
Position N 19°46' E 109°09'.

Length 183 m; draft 8 m.

Type: Tanker. MMSI: 538003726.

Date/timePositionNaut miles runAvg speedWind from/ knotsBaromVisibWave heightAir tempDewpointWater temp
2014-Nov-22 09:31N 19°46' E 109°09'0 0.0
2014-Nov-22 08:31N 19°46' E 109°09'4 4.1
2014-Nov-22 07:33N 19°44' E 109°05'3 3.0
2014-Nov-22 06:33N 19°45' E 109°03'2 2.3
2014-Nov-22 05:33N 19°48' E 109°03'61 9.9
2014-Nov-21 23:23N 20°09' E 110°04'8 9.3
2014-Nov-21 22:33N 20°11' E 110°12'8 8.3
2014-Nov-21 21:33N 20°12' E 110°20'9 9.3
2014-Nov-21 20:33N 20°14' E 110°30'10 9.2
2014-Nov-21 19:30N 20°15' E 110°40'  
2014-Nov-15 20:32N 31°01' E 122°25'1111.0
2014-Nov-15 19:33N 31°03' E 122°12'9 9.3
2014-Nov-15 18:33N 31°05' E 122°02'10 9.9
2014-Nov-15 17:33N 31°10' E 121°52'1413.7
2014-Nov-15 16:33N 31°20' E 121°41'1111.1
2014-Nov-15 15:33N 31°26' E 121°30'1111.0
2014-Nov-15 14:33N 31°33' E 121°20'1313.3
2014-Nov-15 13:33N 31°42' E 121°09'1312.2
2014-Nov-15 12:31N 31°48' E 120°56'1212.4
2014-Nov-15 11:33N 31°59' E 120°50'1111.5
2014-Nov-15 10:33N 32°00' E 120°37'1010.3
2014-Nov-15 09:34N 32°03' E 120°25'1212.0
2014-Nov-15 08:33N 31°56' E 120°14'0 0.3
2014-Nov-15 07:33N 31°56' E 120°14'0 0.0
2014-Nov-15 06:30N 31°56' E 120°14'0 0.0
2014-Nov-15 05:07N 31°56' E 120°14'0 0.0
2014-Nov-15 00:21N 31°56' E 120°14'0 0.0
2014-Nov-14 22:24N 31°56' E 120°14'0 0.0
2014-Nov-14 21:18N 31°56' E 120°14'0 0.0
2014-Nov-14 18:24N 31°56' E 120°14'0 0.0
2014-Nov-14 17:24N 31°56' E 120°14'0 0.0
2014-Nov-14 16:24N 31°56' E 120°14'0 0.0
2014-Nov-14 15:30N 31°56' E 120°14'0 0.0
2014-Nov-14 14:30N 31°56' E 120°14'0 0.0
2014-Nov-14 12:30N 31°56' E 120°14'0 0.0
2014-Nov-14 11:18N 31°56' E 120°14'0 0.0
2014-Nov-14 10:30N 31°56' E 120°14'0 0.0
2014-Nov-14 09:30N 31°56' E 120°14'0 0.4
2014-Nov-14 08:24N 31°56' E 120°13'0 0.5
2014-Nov-14 07:32N 31°56' E 120°14'0 0.0
2014-Nov-14 06:31N 31°56' E 120°14'0 0.0
2014-Nov-14 05:32N 31°56' E 120°14'0 0.0
2014-Nov-14 04:32N 31°56' E 120°14'0 0.0
2014-Nov-14 03:28N 31°56' E 120°14'0 0.0
2014-Nov-14 02:26N 31°56' E 120°14'0 0.0
2014-Nov-14 01:32N 31°56' E 120°14'0 0.0
2014-Nov-14 00:32N 31°56' E 120°14'0 0.0
2014-Nov-13 23:28N 31°56' E 120°14'0 0.0
2014-Nov-13 22:32N 31°56' E 120°14'0 0.0
2014-Nov-13 21:32N 31°56' E 120°14'0 0.0
2014-Nov-13 20:25N 31°56' E 120°14'0 0.0
2014-Nov-13 19:32N 31°56' E 120°14'0 0.0
2014-Nov-13 18:26N 31°56' E 120°14'0 0.0
2014-Nov-13 17:08N 31°56' E 120°14'0 0.0
2014-Nov-13 16:26N 31°56' E 120°14'0 0.0
2014-Nov-13 15:32N 31°56' E 120°14'0 0.0
2014-Nov-13 14:32N 31°56' E 120°14'0 0.0
2014-Nov-13 13:14N 31°56' E 120°14'0 0.0
2014-Nov-13 12:07N 31°56' E 120°14'0 0.0
2014-Nov-13 09:26N 31°56' E 120°14'0 0.0
2014-Nov-13 08:26N 31°56' E 120°14'0 0.0
2014-Nov-13 07:32N 31°56' E 120°14'0 0.0
2014-Nov-13 06:32N 31°56' E 120°14'0 0.0
2014-Nov-13 05:19N 31°56' E 120°14'0 0.0
2014-Nov-13 04:32N 31°56' E 120°14'0 0.0
2014-Nov-13 03:28N 31°56' E 120°14'0 0.0
2014-Nov-13 02:32N 31°56' E 120°14'0 0.0
2014-Nov-13 01:32N 31°56' E 120°14'0 0.0
2014-Nov-13 00:25N 31°56' E 120°14'0 0.0
2014-Nov-12 23:32N 31°56' E 120°14'0 0.0
2014-Nov-12 22:19N 31°56' E 120°14'0 0.0
2014-Nov-12 21:26N 31°56' E 120°14'0 0.0
2014-Nov-12 20:31N 31°56' E 120°14'0 0.0
2014-Nov-12 19:32N 31°56' E 120°14'0 0.0
2014-Nov-12 18:32N 31°56' E 120°14'0 0.1
2014-Nov-12 17:28N 31°56' E 120°13'0 0.1
2014-Nov-12 16:28N 31°56' E 120°14'0 0.0
2014-Nov-12 15:31N 31°56' E 120°14'0 0.0
2014-Nov-12 14:31N 31°56' E 120°14'0 0.0
2014-Nov-12 13:31N 31°56' E 120°14'0 0.0
2014-Nov-12 12:32N 31°56' E 120°14'0 0.0
2014-Nov-12 11:32N 31°56' E 120°14'0 0.0
2014-Nov-12 10:32N 31°56' E 120°14'  
Track history (hours):
 
Tides and Currents Weather Stations Pressure Air Temp Water Temp Dewpoint Dewpoint Depression Visibility Wind Speed Wind Dir Waves Ship Positions

Overseas Skopelos

Last reported at 2014-Nov-22 09:31 UTC. Time now 2014-Nov-22 10:35 UTC.
Position N 19°46' E 109°09'.

Length 183 m; draft 8 m.

Type: Tanker. MMSI: 538003726.

Date/timePositionNaut miles runAvg speedWind from/ knotsBaromVisibWave heightAir tempDewpointWater temp
2014-Nov-22 09:31N 19°46' E 109°09'0 0.0
2014-Nov-22 08:31N 19°46' E 109°09'4 4.1
2014-Nov-22 07:33N 19°44' E 109°05'3 3.0
2014-Nov-22 06:33N 19°45' E 109°03'2 2.3
2014-Nov-22 05:33N 19°48' E 109°03'61 9.9
2014-Nov-21 23:23N 20°09' E 110°04'8 9.3
2014-Nov-21 22:33N 20°11' E 110°12'8 8.3
2014-Nov-21 21:33N 20°12' E 110°20'9 9.3
2014-Nov-21 20:33N 20°14' E 110°30'10 9.2
2014-Nov-21 19:30N 20°15' E 110°40'  
2014-Nov-15 20:32N 31°01' E 122°25'1111.0
2014-Nov-15 19:33N 31°03' E 122°12'9 9.3
2014-Nov-15 18:33N 31°05' E 122°02'10 9.9
2014-Nov-15 17:33N 31°10' E 121°52'1413.7
2014-Nov-15 16:33N 31°20' E 121°41'1111.1
2014-Nov-15 15:33N 31°26' E 121°30'1111.0
2014-Nov-15 14:33N 31°33' E 121°20'1313.3
2014-Nov-15 13:33N 31°42' E 121°09'1312.2
2014-Nov-15 12:31N 31°48' E 120°56'1212.4
2014-Nov-15 11:33N 31°59' E 120°50'1111.5
2014-Nov-15 10:33N 32°00' E 120°37'1010.3
2014-Nov-15 09:34N 32°03' E 120°25'1212.0
2014-Nov-15 08:33N 31°56' E 120°14'0 0.3
2014-Nov-15 07:33N 31°56' E 120°14'0 0.0
2014-Nov-15 06:30N 31°56' E 120°14'0 0.0
2014-Nov-15 05:07N 31°56' E 120°14'0 0.0
2014-Nov-15 00:21N 31°56' E 120°14'0 0.0
2014-Nov-14 22:24N 31°56' E 120°14'0 0.0
2014-Nov-14 21:18N 31°56' E 120°14'0 0.0
2014-Nov-14 18:24N 31°56' E 120°14'0 0.0
2014-Nov-14 17:24N 31°56' E 120°14'0 0.0
2014-Nov-14 16:24N 31°56' E 120°14'0 0.0
2014-Nov-14 15:30N 31°56' E 120°14'0 0.0
2014-Nov-14 14:30N 31°56' E 120°14'0 0.0
2014-Nov-14 12:30N 31°56' E 120°14'0 0.0
2014-Nov-14 11:18N 31°56' E 120°14'0 0.0
2014-Nov-14 10:30N 31°56' E 120°14'0 0.0
2014-Nov-14 09:30N 31°56' E 120°14'0 0.4
2014-Nov-14 08:24N 31°56' E 120°13'0 0.5
2014-Nov-14 07:32N 31°56' E 120°14'0 0.0
2014-Nov-14 06:31N 31°56' E 120°14'0 0.0
2014-Nov-14 05:32N 31°56' E 120°14'0 0.0
2014-Nov-14 04:32N 31°56' E 120°14'0 0.0
2014-Nov-14 03:28N 31°56' E 120°14'0 0.0
2014-Nov-14 02:26N 31°56' E 120°14'0 0.0
2014-Nov-14 01:32N 31°56' E 120°14'0 0.0
2014-Nov-14 00:32N 31°56' E 120°14'0 0.0
2014-Nov-13 23:28N 31°56' E 120°14'0 0.0
2014-Nov-13 22:32N 31°56' E 120°14'0 0.0
2014-Nov-13 21:32N 31°56' E 120°14'0 0.0
2014-Nov-13 20:25N 31°56' E 120°14'0 0.0
2014-Nov-13 19:32N 31°56' E 120°14'0 0.0
2014-Nov-13 18:26N 31°56' E 120°14'0 0.0
2014-Nov-13 17:08N 31°56' E 120°14'0 0.0
2014-Nov-13 16:26N 31°56' E 120°14'0 0.0
2014-Nov-13 15:32N 31°56' E 120°14'0 0.0
2014-Nov-13 14:32N 31°56' E 120°14'0 0.0
2014-Nov-13 13:14N 31°56' E 120°14'0 0.0
2014-Nov-13 12:07N 31°56' E 120°14'0 0.0
2014-Nov-13 09:26N 31°56' E 120°14'0 0.0
2014-Nov-13 08:26N 31°56' E 120°14'0 0.0
2014-Nov-13 07:32N 31°56' E 120°14'0 0.0
2014-Nov-13 06:32N 31°56' E 120°14'0 0.0
2014-Nov-13 05:19N 31°56' E 120°14'0 0.0
2014-Nov-13 04:32N 31°56' E 120°14'0 0.0
2014-Nov-13 03:28N 31°56' E 120°14'0 0.0
2014-Nov-13 02:32N 31°56' E 120°14'0 0.0
2014-Nov-13 01:32N 31°56' E 120°14'0 0.0
2014-Nov-13 00:25N 31°56' E 120°14'0 0.0
2014-Nov-12 23:32N 31°56' E 120°14'0 0.0
2014-Nov-12 22:19N 31°56' E 120°14'0 0.0
2014-Nov-12 21:26N 31°56' E 120°14'0 0.0
2014-Nov-12 20:31N 31°56' E 120°14'0 0.0
2014-Nov-12 19:32N 31°56' E 120°14'0 0.0
2014-Nov-12 18:32N 31°56' E 120°14'0 0.1
2014-Nov-12 17:28N 31°56' E 120°13'0 0.1
2014-Nov-12 16:28N 31°56' E 120°14'0 0.0
2014-Nov-12 15:31N 31°56' E 120°14'0 0.0
2014-Nov-12 14:31N 31°56' E 120°14'0 0.0
2014-Nov-12 13:31N 31°56' E 120°14'0 0.0
2014-Nov-12 12:32N 31°56' E 120°14'0 0.0
2014-Nov-12 11:32N 31°56' E 120°14'0 0.0
2014-Nov-12 10:32N 31°56' E 120°14'  

Dump ship's entire track history